Time;durP1;ratioP1;P1;durP2;ratioP2;P2;SDS_P1;SDS_P2;PMS_P1;PMS_P2;Temp;Humidity;BMP_temperature;BMP_pressure;BME280_temperature;BME280_humidity;BME280_pressure;Samples;Min_cycle;Max_cycle;Signal;HPM_P1;HPM_P2
2021/07/13 00:00:23;;;;;;;10.10;5.78;;;;;;;;;;5035290;28;20036;-70
2021/07/13 00:02:48;;;;;;;7.33;5.67;;;;;;;;;;5044941;28;20024;-71
2021/07/13 00:05:16;;;;;;;10.65;5.97;;;;;;;;;;5055479;28;20036;-71
2021/07/13 00:07:44;;;;;;;9.02;5.90;;;;;;;;;;5042417;28;20064;-71
2021/07/13 00:10:11;;;;;;;9.60;6.30;;;;;;;;;;5044008;28;20032;-69
2021/07/13 00:12:37;;;;;;;7.00;5.72;;;;;;;;;;5056013;28;20037;-69
2021/07/13 00:15:18;;;;;;;8.07;5.40;;;;;;;;;;5054438;28;20021;-70
2021/07/13 00:17:44;;;;;;;7.82;5.97;;;;;;;;;;5034703;28;20323;-71
2021/07/13 00:20:11;;;;;;;7.65;5.32;;;;;;;;;;5034384;28;20121;-71
2021/07/13 00:22:36;;;;;;;9.68;6.05;;;;;;;;;;5046370;28;20064;-71
2021/07/13 00:25:03;;;;;;;8.80;5.63;;;;;;;;;;5052847;28;20380;-71
2021/07/13 00:27:29;;;;;;;8.45;6.00;;;;;;;;;;5035242;28;20451;-70
2021/07/13 00:29:54;;;;;;;10.38;6.00;;;;;;;;;;5034295;28;20025;-70
2021/07/13 00:32:21;;;;;;;6.20;5.60;;;;;;;;;;5038545;28;20024;-70
2021/07/13 00:34:46;;;;;;;9.75;6.20;;;;;;;;;;5053322;28;20163;-70
2021/07/13 00:37:12;;;;;;;6.80;5.93;;;;;;;;;;5046698;28;20483;-70
2021/07/13 00:39:37;;;;;;;9.88;5.95;;;;;;;;;;5051942;28;20032;-72
2021/07/13 00:42:03;;;;;;;9.80;6.18;;;;;;;;;;5051347;28;20117;-71
2021/07/13 00:44:29;;;;;;;9.40;5.55;;;;;;;;;;5044065;28;20024;-71
2021/07/13 00:46:58;;;;;;;8.48;6.00;;;;;;;;;;5047137;28;20106;-71
2021/07/13 00:49:24;;;;;;;7.78;6.28;;;;;;;;;;5034592;28;20032;-71
2021/07/13 00:51:50;;;;;;;7.07;6.03;;;;;;;;;;5033298;28;20018;-71
2021/07/13 00:54:17;;;;;;;8.18;6.18;;;;;;;;;;5053950;28;20032;-71
2021/07/13 00:56:48;;;;;;;7.80;5.72;;;;;;;;;;5053554;28;20373;-72
2021/07/13 00:59:14;;;;;;;7.75;5.47;;;;;;;;;;5039445;28;20024;-72
2021/07/13 01:01:39;;;;;;;9.85;5.53;;;;;;;;;;5033429;28;20505;-72
2021/07/13 01:04:07;;;;;;;9.23;6.03;;;;;;;;;;5051546;28;20032;-71
2021/07/13 01:06:42;;;;;;;10.25;6.15;;;;;;;;;;5039465;28;20025;-72
2021/07/13 01:09:13;;;;;;;7.15;5.95;;;;;;;;;;5034663;28;20033;-70
2021/07/13 01:11:46;;;;;;;8.85;5.40;;;;;;;;;;5033239;28;20425;-71
2021/07/13 01:14:29;;;;;;;6.00;5.40;;;;;;;;;;5044906;28;20131;-72
2021/07/13 01:17:05;;;;;;;8.65;5.90;;;;;;;;;;5072476;28;20077;-71
2021/07/13 01:19:37;;;;;;;8.20;5.85;;;;;;;;;;5072931;28;20111;-71
2021/07/13 01:22:07;;;;;;;10.00;5.93;;;;;;;;;;5072532;28;20020;-71
2021/07/13 01:24:42;;;;;;;8.85;5.85;;;;;;;;;;5072393;28;20020;-71
2021/07/13 01:27:37;;;;;;;7.55;6.15;;;;;;;;;;5073266;28;20430;-72
2021/07/13 01:30:25;;;;;;;10.13;5.93;;;;;;;;;;5053280;28;20071;-72
2021/07/13 01:33:06;;;;;;;8.45;6.00;;;;;;;;;;5053066;28;20028;-72
2021/07/13 01:35:56;;;;;;;7.55;5.70;;;;;;;;;;5062802;28;20031;-71
2021/07/13 01:38:25;;;;;;;7.82;5.78;;;;;;;;;;5060808;28;20343;-72
2021/07/13 01:40:57;;;;;;;7.97;5.95;;;;;;;;;;5071331;28;20082;-71
2021/07/13 01:43:23;;;;;;;9.32;6.40;;;;;;;;;;5064262;28;20473;-72
2021/07/13 01:45:49;;;;;;;8.00;6.22;;;;;;;;;;5063395;28;20029;-71
2021/07/13 01:48:15;;;;;;;8.20;6.63;;;;;;;;;;5065464;28;20025;-72
2021/07/13 01:50:43;;;;;;;9.50;6.38;;;;;;;;;;5053592;28;20519;-72
2021/07/13 01:53:11;;;;;;;10.43;6.57;;;;;;;;;;5066928;28;20020;-71
2021/07/13 01:55:39;;;;;;;8.10;6.32;;;;;;;;;;5065823;28;20063;-72
2021/07/13 01:58:05;;;;;;;9.93;6.15;;;;;;;;;;5059737;28;20028;-72
2021/07/13 02:00:31;;;;;;;7.63;6.65;;;;;;;;;;5072463;28;20052;-71
2021/07/13 02:02:58;;;;;;;9.30;6.80;;;;;;;;;;5056011;28;20051;-71
2021/07/13 02:05:26;;;;;;;11.35;6.25;;;;;;;;;;5053599;28;20033;-71
2021/07/13 02:07:55;;;;;;;9.63;6.43;;;;;;;;;;5053146;28;20116;-71
2021/07/13 02:10:21;;;;;;;10.13;6.65;;;;;;;;;;5052448;28;20021;-71
2021/07/13 02:12:48;;;;;;;10.98;6.90;;;;;;;;;;5051297;28;20045;-71
2021/07/13 02:15:13;;;;;;;9.55;7.18;;;;;;;;;;5051924;28;21380;-70
2021/07/13 02:17:39;;;;;;;9.77;6.85;;;;;;;;;;5051672;28;20039;-71
2021/07/13 02:20:08;;;;;;;12.02;6.78;;;;;;;;;;5052280;28;20114;-71
2021/07/13 02:22:33;;;;;;;8.75;6.53;;;;;;;;;;5051709;28;20051;-71
2021/07/13 02:24:59;;;;;;;10.30;6.75;;;;;;;;;;5049780;28;20024;-70
2021/07/13 02:27:30;;;;;;;8.10;6.97;;;;;;;;;;5028388;28;20121;-71
2021/07/13 02:29:58;;;;;;;9.00;7.20;;;;;;;;;;5032056;28;20052;-71
2021/07/13 02:32:43;;;;;;;8.15;6.60;;;;;;;;;;5032871;28;20412;-72
2021/07/13 02:35:11;;;;;;;9.07;6.90;;;;;;;;;;5034848;28;20021;-71
2021/07/13 02:37:39;;;;;;;9.98;6.75;;;;;;;;;;5033027;28;20014;-73
2021/07/13 02:40:07;;;;;;;13.02;7.00;;;;;;;;;;5035355;28;20068;-79
2021/07/13 02:42:33;;;;;;;7.68;6.50;;;;;;;;;;5033326;28;20040;-73
2021/07/13 02:45:00;;;;;;;11.15;7.18;;;;;;;;;;5032667;28;20040;-73
2021/07/13 02:47:27;;;;;;;10.02;6.38;;;;;;;;;;5031555;28;20025;-72
2021/07/13 02:49:55;;;;;;;8.07;6.68;;;;;;;;;;5031963;28;20045;-72
2021/07/13 02:52:23;;;;;;;7.70;5.90;;;;;;;;;;5032285;28;20056;-72
2021/07/13 02:54:54;;;;;;;8.18;6.60;;;;;;;;;;5032366;28;20025;-71
2021/07/13 02:57:22;;;;;;;9.32;6.50;;;;;;;;;;5031995;28;20084;-72
2021/07/13 02:59:47;;;;;;;7.88;6.47;;;;;;;;;;5048474;28;20025;-72
2021/07/13 03:02:14;;;;;;;11.73;6.10;;;;;;;;;;5034058;28;20029;-72
2021/07/13 03:04:41;;;;;;;12.35;7.05;;;;;;;;;;5043197;28;20040;-72
2021/07/13 03:07:07;;;;;;;10.45;6.10;;;;;;;;;;5048901;28;20036;-72
2021/07/13 03:09:33;;;;;;;11.93;6.40;;;;;;;;;;5049536;28;20033;-72
2021/07/13 03:11:59;;;;;;;9.85;6.68;;;;;;;;;;5049913;28;20040;-72
2021/07/13 03:14:27;;;;;;;11.13;6.63;;;;;;;;;;5031801;28;20077;-72
2021/07/13 03:16:54;;;;;;;8.57;6.38;;;;;;;;;;5026070;28;20039;-72
2021/07/13 03:19:20;;;;;;;8.65;6.50;;;;;;;;;;5050988;28;20052;-71
2021/07/13 03:21:50;;;;;;;8.18;5.95;;;;;;;;;;5050601;28;20064;-72
2021/07/13 03:24:17;;;;;;;9.02;6.53;;;;;;;;;;5032997;28;20067;-72
2021/07/13 03:26:44;;;;;;;10.43;6.45;;;;;;;;;;5030974;28;20029;-72
2021/07/13 03:29:11;;;;;;;9.05;6.22;;;;;;;;;;5045187;28;20108;-72
2021/07/13 03:31:37;;;;;;;7.25;6.05;;;;;;;;;;5050840;28;20021;-71
2021/07/13 03:34:05;;;;;;;9.20;5.93;;;;;;;;;;5048626;28;20035;-71
2021/07/13 03:36:32;;;;;;;7.35;6.43;;;;;;;;;;5050114;28;20088;-71
2021/07/13 03:38:58;;;;;;;8.13;6.10;;;;;;;;;;5038364;28;20377;-72
2021/07/13 03:41:26;;;;;;;8.65;6.00;;;;;;;;;;5030901;28;20033;-71
2021/07/13 03:43:54;;;;;;;7.47;6.07;;;;;;;;;;5031247;28;20104;-72
2021/07/13 03:46:20;;;;;;;8.15;5.82;;;;;;;;;;5038605;28;20020;-71
2021/07/13 03:48:47;;;;;;;9.55;5.85;;;;;;;;;;5050401;28;20128;-72
2021/07/13 03:51:31;;;;;;;8.18;5.80;;;;;;;;;;5050759;28;20074;-72
2021/07/13 03:53:57;;;;;;;6.82;5.45;;;;;;;;;;5049909;28;20476;-72
2021/07/13 03:56:22;;;;;;;7.40;5.85;;;;;;;;;;5048776;28;20021;-72
2021/07/13 03:58:48;;;;;;;8.18;5.80;;;;;;;;;;5042503;28;20028;-71
2021/07/13 04:01:14;;;;;;;7.32;6.30;;;;;;;;;;5039769;28;20032;-72
2021/07/13 04:03:39;;;;;;;9.45;5.70;;;;;;;;;;5048721;28;20029;-72
2021/07/13 04:06:05;;;;;;;9.82;6.53;;;;;;;;;;5030918;28;20107;-72
2021/07/13 04:08:30;;;;;;;7.53;5.85;;;;;;;;;;5045892;28;20082;-72
2021/07/13 04:10:55;;;;;;;8.93;6.47;;;;;;;;;;5048818;28;20043;-72
2021/07/13 04:13:21;;;;;;;9.27;6.57;;;;;;;;;;5048640;28;20037;-72
2021/07/13 04:15:48;;;;;;;8.85;5.93;;;;;;;;;;5045962;28;20044;-71
2021/07/13 04:18:13;;;;;;;7.82;6.40;;;;;;;;;;5049634;28;20436;-72
2021/07/13 04:20:39;;;;;;;8.75;6.65;;;;;;;;;;5046928;28;20109;-72
2021/07/13 04:23:04;;;;;;;9.80;6.43;;;;;;;;;;5050031;28;20167;-72
2021/07/13 04:25:30;;;;;;;7.80;6.15;;;;;;;;;;5041627;28;20496;-72
2021/07/13 04:27:55;;;;;;;7.90;6.32;;;;;;;;;;5035016;28;20033;-71
2021/07/13 04:30:20;;;;;;;9.23;6.57;;;;;;;;;;5036488;28;20024;-72
2021/07/13 04:32:46;;;;;;;11.93;6.70;;;;;;;;;;5051025;28;20059;-72
2021/07/13 04:35:12;;;;;;;8.45;6.38;;;;;;;;;;5052691;28;20032;-72
2021/07/13 04:37:37;;;;;;;8.07;6.18;;;;;;;;;;5052305;28;20029;-72
2021/07/13 04:40:04;;;;;;;7.68;5.95;;;;;;;;;;5035268;28;20452;-72
2021/07/13 04:42:30;;;;;;;6.32;5.53;;;;;;;;;;5042700;28;20385;-72
2021/07/13 04:44:56;;;;;;;7.00;5.63;;;;;;;;;;5052718;28;20032;-72
2021/07/13 04:47:21;;;;;;;8.95;5.95;;;;;;;;;;5034661;28;20125;-72
2021/07/13 04:49:47;;;;;;;7.75;5.95;;;;;;;;;;5035461;28;20021;-72
2021/07/13 04:52:13;;;;;;;7.55;5.50;;;;;;;;;;5038419;28;20464;-72
2021/07/13 04:54:38;;;;;;;9.25;6.13;;;;;;;;;;5037637;28;20021;-72
2021/07/13 04:57:04;;;;;;;8.73;5.85;;;;;;;;;;5041040;28;20484;-72
2021/07/13 04:59:30;;;;;;;8.07;5.78;;;;;;;;;;5046819;28;20096;-73
2021/07/13 05:01:55;;;;;;;7.30;6.32;;;;;;;;;;5042683;28;20060;-73
2021/07/13 05:04:20;;;;;;;7.95;6.03;;;;;;;;;;5041871;28;20039;-72
2021/07/13 05:06:46;;;;;;;8.85;6.20;;;;;;;;;;5044249;28;20381;-72
2021/07/13 05:09:12;;;;;;;9.25;5.93;;;;;;;;;;5052650;28;20052;-73
2021/07/13 05:11:37;;;;;;;7.45;5.78;;;;;;;;;;5047537;28;20484;-72
2021/07/13 05:14:04;;;;;;;6.65;5.55;;;;;;;;;;5042002;28;20037;-73
2021/07/13 05:16:30;;;;;;;7.70;5.03;;;;;;;;;;5035451;28;20036;-73
2021/07/13 05:18:56;;;;;;;7.03;5.40;;;;;;;;;;5043758;28;20028;-73
2021/07/13 05:21:22;;;;;;;7.88;5.38;;;;;;;;;;5052995;28;20028;-73
2021/07/13 05:23:48;;;;;;;6.47;5.43;;;;;;;;;;5046859;28;20029;-73
2021/07/13 05:26:13;;;;;;;6.78;5.40;;;;;;;;;;5038122;28;20033;-73
2021/07/13 05:28:40;;;;;;;6.63;5.75;;;;;;;;;;5035915;28;20099;-73
2021/07/13 05:31:05;;;;;;;6.15;4.45;;;;;;;;;;5043237;28;20040;-73
2021/07/13 05:33:30;;;;;;;6.43;4.68;;;;;;;;;;5052859;28;20021;-77
2021/07/13 05:35:56;;;;;;;6.30;4.80;;;;;;;;;;5046310;28;20041;-71
2021/07/13 05:38:21;;;;;;;6.43;5.05;;;;;;;;;;5035439;28;20029;-71
2021/07/13 05:40:47;;;;;;;7.20;5.35;;;;;;;;;;5044710;28;20446;-72
2021/07/13 05:43:14;;;;;;;5.80;4.82;;;;;;;;;;5034403;28;20055;-71
2021/07/13 05:45:39;;;;;;;5.95;4.95;;;;;;;;;;5032725;28;20033;-70
2021/07/13 05:48:05;;;;;;;8.55;4.90;;;;;;;;;;5043422;28;20497;-72
2021/07/13 05:50:30;;;;;;;4.70;4.20;;;;;;;;;;5032478;28;20099;-70
2021/07/13 05:53:02;;;;;;;6.45;4.40;;;;;;;;;;5040889;28;20202;-71
2021/07/13 05:55:27;;;;;;;8.45;4.85;;;;;;;;;;5035814;28;20060;-72
2021/07/13 05:57:54;;;;;;;6.90;4.70;;;;;;;;;;5032844;28;20060;-72
2021/07/13 06:00:20;;;;;;;8.98;4.60;;;;;;;;;;5033615;28;20460;-71
2021/07/13 06:02:45;;;;;;;6.40;4.85;;;;;;;;;;5032366;28;20080;-72
2021/07/13 06:05:12;;;;;;;6.60;4.90;;;;;;;;;;5039509;28;20162;-71
2021/07/13 06:07:44;;;;;;;6.28;4.93;;;;;;;;;;5052506;28;20055;-71
2021/07/13 06:10:10;;;;;;;7.33;4.90;;;;;;;;;;5040165;28;20500;-71
2021/07/13 06:12:36;;;;;;;7.95;4.60;;;;;;;;;;5038506;28;20075;-71
2021/07/13 06:15:05;;;;;;;7.30;5.22;;;;;;;;;;5045373;28;20434;-73
2021/07/13 06:17:32;;;;;;;5.63;4.80;;;;;;;;;;5037088;28;20022;-71
2021/07/13 06:19:57;;;;;;;5.22;4.72;;;;;;;;;;5032183;28;20025;-71
2021/07/13 06:22:23;;;;;;;8.27;4.95;;;;;;;;;;5039868;28;20070;-71
2021/07/13 06:24:55;;;;;;;7.07;4.80;;;;;;;;;;5048493;28;20032;-71
2021/07/13 06:27:21;;;;;;;5.65;4.90;;;;;;;;;;5035810;28;20033;-70
2021/07/13 06:29:47;;;;;;;8.35;5.00;;;;;;;;;;5043270;28;20037;-71
2021/07/13 06:32:13;;;;;;;6.13;4.95;;;;;;;;;;5041386;28;20035;-72
2021/07/13 06:34:38;;;;;;;7.30;5.10;;;;;;;;;;5052066;28;20024;-71
2021/07/13 06:37:03;;;;;;;9.98;5.50;;;;;;;;;;5049454;28;20103;-73
2021/07/13 06:39:29;;;;;;;8.00;5.30;;;;;;;;;;5034565;28;20021;-71
2021/07/13 06:41:55;;;;;;;7.72;5.35;;;;;;;;;;5033490;28;20036;-72
2021/07/13 06:44:21;;;;;;;8.00;5.25;;;;;;;;;;5039178;28;20100;-71
2021/07/13 06:46:46;;;;;;;8.43;5.60;;;;;;;;;;5031722;28;20025;-71
2021/07/13 06:49:11;;;;;;;8.63;5.95;;;;;;;;;;5039467;28;20029;-72
2021/07/13 06:51:37;;;;;;;7.97;5.18;;;;;;;;;;5044794;28;20032;-71
2021/07/13 06:54:03;;;;;;;9.00;5.63;;;;;;;;;;5027147;28;20055;-70
2021/07/13 06:56:29;;;;;;;8.57;5.80;;;;;;;;;;5022859;28;20426;-71
2021/07/13 06:58:54;;;;;;;8.07;5.90;;;;;;;;;;5034473;28;20634;-69
2021/07/13 07:01:20;;;;;;;7.00;6.10;;;;;;;;;;5046535;28;20107;-75
2021/07/13 07:03:46;;;;;;;8.35;5.80;;;;;;;;;;5045305;28;20063;-73
2021/07/13 07:06:11;;;;;;;10.05;6.60;;;;;;;;;;5046190;28;20441;-74
2021/07/13 07:08:37;;;;;;;7.30;6.18;;;;;;;;;;5041407;28;20021;-75
2021/07/13 07:11:03;;;;;;;7.95;6.20;;;;;;;;;;5039957;28;20033;-74
2021/07/13 07:13:29;;;;;;;9.70;6.00;;;;;;;;;;5034883;28;20546;-73
2021/07/13 07:15:54;;;;;;;6.90;6.10;;;;;;;;;;5033515;28;20444;-74
2021/07/13 07:18:20;;;;;;;9.07;5.88;;;;;;;;;;5020536;28;20121;-73
2021/07/13 07:20:46;;;;;;;7.22;5.80;;;;;;;;;;5045499;28;20039;-70
2021/07/13 07:23:11;;;;;;;9.38;5.95;;;;;;;;;;5034248;28;20029;-78
2021/07/13 07:25:37;;;;;;;10.52;6.32;;;;;;;;;;5049520;28;20124;-77
2021/07/13 07:28:03;;;;;;;7.28;6.40;;;;;;;;;;5035490;28;20139;-73
2021/07/13 07:30:30;;;;;;;7.53;6.30;;;;;;;;;;5032986;28;20049;-75
2021/07/13 07:32:58;;;;;;;6.72;5.75;;;;;;;;;;5045363;28;20397;-75
2021/07/13 07:35:24;;;;;;;9.07;6.07;;;;;;;;;;5051820;28;20025;-71
2021/07/13 07:37:51;;;;;;;11.85;6.28;;;;;;;;;;5041862;28;20032;-71
2021/07/13 07:40:19;;;;;;;10.55;6.60;;;;;;;;;;5038972;28;20508;-72
2021/07/13 07:42:47;;;;;;;7.82;6.13;;;;;;;;;;5040506;28;20472;-73
2021/07/13 07:45:13;;;;;;;8.18;6.13;;;;;;;;;;5038685;28;20110;-77
2021/07/13 07:47:39;;;;;;;8.57;5.97;;;;;;;;;;5049644;28;20087;-74
2021/07/13 07:50:05;;;;;;;9.13;6.30;;;;;;;;;;5051051;28;20052;-73
2021/07/13 07:52:31;;;;;;;8.55;6.70;;;;;;;;;;5046882;28;20059;-73
2021/07/13 07:54:58;;;;;;;8.55;6.28;;;;;;;;;;5042749;28;20026;-73
2021/07/13 07:57:24;;;;;;;7.15;6.03;;;;;;;;;;5044975;28;20021;-74
2021/07/13 07:59:49;;;;;;;7.57;6.78;;;;;;;;;;5032855;28;20582;-72
2021/07/13 08:02:15;;;;;;;9.02;6.10;;;;;;;;;;5035995;28;20075;-75
2021/07/13 08:04:41;;;;;;;9.48;7.00;;;;;;;;;;5054238;28;20078;-70
2021/07/13 08:07:07;;;;;;;11.02;6.72;;;;;;;;;;5051522;28;20369;-73
2021/07/13 08:09:33;;;;;;;8.95;6.72;;;;;;;;;;5036115;28;20047;-73
2021/07/13 08:11:58;;;;;;;10.23;6.82;;;;;;;;;;5052442;28;20112;-74
2021/07/13 08:14:25;;;;;;;10.30;7.13;;;;;;;;;;5039680;28;20129;-72
2021/07/13 08:16:53;;;;;;;10.30;7.22;;;;;;;;;;5035221;28;20535;-72
2021/07/13 08:19:19;;;;;;;8.30;7.50;;;;;;;;;;5037533;28;20041;-76
2021/07/13 08:21:44;;;;;;;12.32;7.85;;;;;;;;;;5037484;28;20041;-76
2021/07/13 08:24:11;;;;;;;7.13;6.50;;;;;;;;;;5038669;28;20045;-73
2021/07/13 08:26:37;;;;;;;11.52;7.53;;;;;;;;;;5039785;28;20090;-73
2021/07/13 08:29:03;;;;;;;14.45;7.55;;;;;;;;;;5047967;28;20030;-76
2021/07/13 08:31:31;;;;;;;8.15;7.28;;;;;;;;;;5038901;28;20025;-77
2021/07/13 08:33:57;;;;;;;12.07;7.72;;;;;;;;;;5051218;28;20033;-74
2021/07/13 08:36:23;;;;;;;8.38;7.57;;;;;;;;;;5049917;28;20047;-76
2021/07/13 08:38:48;;;;;;;7.90;6.63;;;;;;;;;;5048931;28;20028;-75
2021/07/13 08:41:19;;;;;;;8.82;7.35;;;;;;;;;;5053879;28;20033;-76
2021/07/13 08:43:45;;;;;;;12.90;7.95;;;;;;;;;;5047204;28;20024;-78
2021/07/13 08:46:10;;;;;;;9.00;7.35;;;;;;;;;;5048676;28;20075;-77
2021/07/13 08:48:39;;;;;;;11.82;7.43;;;;;;;;;;5035325;28;20030;-76
2021/07/13 08:51:06;;;;;;;9.75;7.82;;;;;;;;;;5036019;28;20030;-74
2021/07/13 08:53:32;;;;;;;10.13;7.85;;;;;;;;;;5049399;28;20098;-75
2021/07/13 08:55:58;;;;;;;12.82;7.63;;;;;;;;;;5049638;28;20491;-75
2021/07/13 08:58:24;;;;;;;9.25;7.78;;;;;;;;;;5047151;28;20033;-75
2021/07/13 09:00:51;;;;;;;11.23;7.95;;;;;;;;;;5048402;28;20374;-78
2021/07/13 09:03:19;;;;;;;10.30;7.72;;;;;;;;;;5054914;28;20029;-78
2021/07/13 09:05:53;;;;;;;8.63;7.40;;;;;;;;;;5043703;28;20029;-76
2021/07/13 09:08:27;;;;;;;9.15;7.93;;;;;;;;;;5046355;28;20029;-75
2021/07/13 09:11:10;;;;;;;10.38;8.63;;;;;;;;;;5039409;28;20040;-73
2021/07/13 09:13:46;;;;;;;8.60;7.50;;;;;;;;;;5029608;28;20596;-77
2021/07/13 09:16:21;;;;;;;11.07;7.80;;;;;;;;;;5070260;28;20074;-73
2021/07/13 09:18:52;;;;;;;11.70;7.80;;;;;;;;;;5055859;28;20025;-74
2021/07/13 09:21:33;;;;;;;8.30;7.43;;;;;;;;;;5057981;28;20056;-79
2021/07/13 09:24:02;;;;;;;8.68;7.80;;;;;;;;;;5064426;28;20135;-77
2021/07/13 09:26:47;;;;;;;9.35;7.78;;;;;;;;;;5066378;28;20353;-73
2021/07/13 09:29:31;;;;;;;9.05;8.20;;;;;;;;;;5060165;28;20037;-75
2021/07/13 09:32:16;;;;;;;9.75;7.78;;;;;;;;;;5039249;28;20037;-77
2021/07/13 09:34:51;;;;;;;12.73;7.97;;;;;;;;;;5065966;28;20112;-75
2021/07/13 09:37:20;;;;;;;8.43;7.47;;;;;;;;;;5058080;28;20064;-76
2021/07/13 09:39:56;;;;;;;8.63;7.82;;;;;;;;;;5071478;28;20107;-74
2021/07/13 09:42:26;;;;;;;9.77;7.63;;;;;;;;;;5071505;28;20668;-73
2021/07/13 09:44:52;;;;;;;9.63;8.57;;;;;;;;;;5054960;28;20032;-80
2021/07/13 09:47:29;;;;;;;12.32;8.30;;;;;;;;;;5055339;28;20029;-75
2021/07/13 09:49:54;;;;;;;9.50;8.32;;;;;;;;;;5054273;28;20457;-78
2021/07/13 09:52:25;;;;;;;9.95;8.43;;;;;;;;;;5054447;28;20028;-74
2021/07/13 09:54:51;;;;;;;12.52;8.55;;;;;;;;;;5055449;28;20028;-76
2021/07/13 09:57:20;;;;;;;11.35;8.25;;;;;;;;;;5054235;28;20492;-81
2021/07/13 09:59:52;;;;;;;11.13;9.43;;;;;;;;;;5071840;28;20492;-77
2021/07/13 10:02:23;;;;;;;11.48;8.73;;;;;;;;;;5066450;28;20031;-73
2021/07/13 10:04:50;;;;;;;9.77;8.77;;;;;;;;;;5064300;28;20028;-73
2021/07/13 10:07:19;;;;;;;11.45;8.70;;;;;;;;;;5072720;28;20028;-75
2021/07/13 10:09:47;;;;;;;11.05;8.63;;;;;;;;;;5071205;28;20033;-73
2021/07/13 10:12:17;;;;;;;11.85;8.60;;;;;;;;;;5054740;28;20079;-72
2021/07/13 10:14:47;;;;;;;13.35;9.50;;;;;;;;;;5068345;28;20033;-72
2021/07/13 10:17:15;;;;;;;10.57;9.57;;;;;;;;;;5072755;28;20032;-73
2021/07/13 10:19:58;;;;;;;11.15;9.27;;;;;;;;;;5066289;28;20025;-74
2021/07/13 10:22:26;;;;;;;9.93;8.93;;;;;;;;;;5059680;28;20037;-74
2021/07/13 10:24:57;;;;;;;12.20;9.10;;;;;;;;;;5070435;28;20028;-73
2021/07/13 10:27:36;;;;;;;10.60;9.23;;;;;;;;;;5062833;28;20025;-73
2021/07/13 10:30:08;;;;;;;10.85;9.77;;;;;;;;;;5058644;28;20048;-74
2021/07/13 10:32:39;;;;;;;12.02;9.80;;;;;;;;;;5060540;28;20031;-79
2021/07/13 10:35:28;;;;;;;13.52;10.05;;;;;;;;;;5063265;28;20059;-81
2021/07/13 10:37:57;;;;;;;11.07;9.93;;;;;;;;;;5064452;28;20036;-76
2021/07/13 10:40:25;;;;;;;13.13;9.45;;;;;;;;;;5064206;28;20024;-75
2021/07/13 10:43:03;;;;;;;11.35;10.38;;;;;;;;;;5053271;28;20021;-78
2021/07/13 10:45:44;;;;;;;11.48;9.90;;;;;;;;;;5058079;28;20361;-78
2021/07/13 10:48:17;;;;;;;12.40;9.32;;;;;;;;;;5053923;28;20029;-77
2021/07/13 10:50:51;;;;;;;10.80;9.73;;;;;;;;;;5060405;28;20071;-75
2021/07/13 10:53:26;;;;;;;11.40;10.20;;;;;;;;;;5066564;28;20107;-79
2021/07/13 10:56:02;;;;;;;10.10;9.27;;;;;;;;;;5045142;28;20084;-74
2021/07/13 10:58:42;;;;;;;11.35;9.50;;;;;;;;;;5070689;28;20675;-77
2021/07/13 11:01:27;;;;;;;10.18;9.13;;;;;;;;;;5062303;28;20519;-72
2021/07/13 11:03:54;;;;;;;13.65;9.80;;;;;;;;;;5066743;28;20055;-76
2021/07/13 11:06:37;;;;;;;10.93;9.82;;;;;;;;;;5068929;28;20027;-79
2021/07/13 11:09:40;;;;;;;11.18;10.07;;;;;;;;;;5060110;28;20064;-77
2021/07/13 11:12:14;;;;;;;10.88;9.77;;;;;;;;;;5054147;28;20035;-76
2021/07/13 11:14:58;;;;;;;10.98;9.73;;;;;;;;;;5057610;28;20095;-73
2021/07/13 11:17:25;;;;;;;12.00;10.07;;;;;;;;;;5062467;28;20028;-78
2021/07/13 11:19:58;;;;;;;10.63;9.63;;;;;;;;;;5065253;28;20107;-77
2021/07/13 11:22:23;;;;;;;11.38;10.38;;;;;;;;;;5056329;28;20025;-74
2021/07/13 11:24:50;;;;;;;10.77;9.75;;;;;;;;;;5061263;28;20040;-76
2021/07/13 11:27:17;;;;;;;10.77;9.68;;;;;;;;;;5056178;28;20524;-77
2021/07/13 11:29:50;;;;;;;11.82;10.45;;;;;;;;;;5052051;28;20123;-76
2021/07/13 11:32:15;;;;;;;15.40;10.45;;;;;;;;;;5052398;28;20360;-75
2021/07/13 11:34:43;;;;;;;11.70;10.57;;;;;;;;;;5060375;28;20115;-76
2021/07/13 11:37:09;;;;;;;15.52;11.02;;;;;;;;;;5060002;28;20458;-74
2021/07/13 11:39:38;;;;;;;11.93;10.60;;;;;;;;;;5072560;28;20012;-74
2021/07/13 11:42:08;;;;;;;11.85;9.95;;;;;;;;;;5072193;28;20031;-75
2021/07/13 11:44:36;;;;;;;12.63;10.00;;;;;;;;;;5065722;28;20460;-76
2021/07/13 11:47:03;;;;;;;13.70;10.65;;;;;;;;;;5070659;28;20468;-78
2021/07/13 11:49:33;;;;;;;12.45;9.82;;;;;;;;;;5064712;28;20336;-76
2021/07/13 11:52:07;;;;;;;11.77;10.57;;;;;;;;;;5052201;28;20330;-78
2021/07/13 11:54:38;;;;;;;11.45;9.85;;;;;;;;;;5052339;28;20052;-76
2021/07/13 11:57:06;;;;;;;12.18;10.35;;;;;;;;;;5051848;28;20048;-76
2021/07/13 11:59:34;;;;;;;14.95;9.93;;;;;;;;;;5054318;28;20101;-74
2021/07/13 12:02:07;;;;;;;11.48;9.68;;;;;;;;;;5049767;28;20033;-74
2021/07/13 12:04:41;;;;;;;11.35;9.52;;;;;;;;;;5050693;28;20025;-75
2021/07/13 12:07:07;;;;;;;10.60;9.45;;;;;;;;;;5062705;28;20040;-76
2021/07/13 12:09:37;;;;;;;10.82;9.73;;;;;;;;;;5052367;28;20033;-76
2021/07/13 12:12:11;;;;;;;13.35;9.38;;;;;;;;;;5050117;28;20373;-77
2021/07/13 12:14:38;;;;;;;14.82;9.13;;;;;;;;;;5032291;28;20115;-76
2021/07/13 12:17:05;;;;;;;10.57;9.48;;;;;;;;;;5030746;28;20120;-77
2021/07/13 12:19:33;;;;;;;10.43;9.25;;;;;;;;;;5030492;28;20026;-75
2021/07/13 12:22:11;;;;;;;10.52;8.98;;;;;;;;;;5035990;28;20036;-74
2021/07/13 12:24:44;;;;;;;9.98;8.98;;;;;;;;;;5044499;28;20091;-73
2021/07/13 12:27:12;;;;;;;10.25;8.85;;;;;;;;;;5043439;28;20037;-73
2021/07/13 12:29:37;;;;;;;9.75;8.95;;;;;;;;;;5031882;28;20376;-73
2021/07/13 12:32:14;;;;;;;10.85;9.00;;;;;;;;;;5050696;28;20238;-76
2021/07/13 12:34:42;;;;;;;11.93;8.82;;;;;;;;;;5032800;28;20033;-79
2021/07/13 12:37:09;;;;;;;9.57;8.73;;;;;;;;;;5038158;28;20373;-73
2021/07/13 12:39:37;;;;;;;11.52;8.70;;;;;;;;;;5033680;28;20457;-77
2021/07/13 12:42:16;;;;;;;12.20;8.95;;;;;;;;;;5050508;28;20369;-78
2021/07/13 12:44:53;;;;;;;9.52;8.50;;;;;;;;;;5033114;28;20083;-78
2021/07/13 12:47:28;;;;;;;9.82;8.88;;;;;;;;;;5046172;28;20032;-78
2021/07/13 12:50:08;;;;;;;9.63;8.68;;;;;;;;;;5054729;28;20051;-79
2021/07/13 12:52:44;;;;;;;11.02;8.48;;;;;;;;;;5055715;28;20032;-82
2021/07/13 12:55:16;;;;;;;10.18;8.98;;;;;;;;;;5055709;28;20036;-76
2021/07/13 12:57:47;;;;;;;9.63;8.63;;;;;;;;;;5035607;28;20476;-77
2021/07/13 13:00:18;;;;;;;9.75;8.68;;;;;;;;;;5035212;28;20060;-76
2021/07/13 13:03:04;;;;;;;10.60;9.60;;;;;;;;;;5036171;28;20057;-79
2021/07/13 13:05:33;;;;;;;10.40;9.30;;;;;;;;;;5045481;28;20503;-79
2021/07/13 13:08:13;;;;;;;10.27;9.07;;;;;;;;;;5054865;28;20018;-76
2021/07/13 13:10:47;;;;;;;9.32;8.40;;;;;;;;;;5035510;28;20030;-77
2021/07/13 13:13:45;;;;;;;11.05;9.00;;;;;;;;;;5033559;28;20053;-74
2021/07/13 13:16:24;;;;;;;9.45;8.45;;;;;;;;;;5022232;28;20513;-74
2021/07/13 13:18:51;;;;;;;9.50;8.63;;;;;;;;;;5034330;28;20401;-76
2021/07/13 13:21:17;;;;;;;10.02;9.02;;;;;;;;;;5039705;28;20033;-79
2021/07/13 13:23:42;;;;;;;10.50;9.60;;;;;;;;;;5036729;28;20542;-80
2021/07/13 13:26:08;;;;;;;11.38;9.50;;;;;;;;;;5046490;28;20025;-76
2021/07/13 13:28:35;;;;;;;11.23;9.52;;;;;;;;;;5046637;28;20392;-78
2021/07/13 13:31:00;;;;;;;13.18;8.98;;;;;;;;;;5047097;28;20094;-79
2021/07/13 13:33:26;;;;;;;11.95;9.43;;;;;;;;;;5033503;28;20243;-75
2021/07/13 13:40:53;;;;;;;11.85;9.73;;;;;;;;;;5044081;28;20029;-75
2021/07/13 13:43:18;;;;;;;10.00;9.07;;;;;;;;;;5037591;28;20036;-75
2021/07/13 13:45:46;;;;;;;11.32;9.23;;;;;;;;;;5049086;28;20037;-76
2021/07/13 13:48:12;;;;;;;9.93;9.02;;;;;;;;;;5034569;28;20036;-75
2021/07/13 13:50:37;;;;;;;10.73;9.55;;;;;;;;;;5034459;28;20029;-78
2021/07/13 13:53:03;;;;;;;11.43;10.23;;;;;;;;;;5035949;28;20025;-76
2021/07/13 13:55:29;;;;;;;10.68;9.65;;;;;;;;;;5050710;28;20107;-76
2021/07/13 13:57:55;;;;;;;11.18;9.55;;;;;;;;;;5053380;28;20115;-74
2021/07/13 14:00:21;;;;;;;10.23;9.20;;;;;;;;;;5052547;28;20025;-73
2021/07/13 14:02:48;;;;;;;10.18;9.25;;;;;;;;;;5038329;28;20505;-76
2021/07/13 14:05:14;;;;;;;10.32;9.20;;;;;;;;;;5039932;28;20099;-78
2021/07/13 14:07:40;;;;;;;9.50;8.10;;;;;;;;;;5016670;28;20029;-77
2021/07/13 14:10:06;;;;;;;10.40;8.55;;;;;;;;;;5032892;28;20372;-77
2021/07/13 14:12:32;;;;;;;11.55;8.90;;;;;;;;;;5033552;28;20030;-78
2021/07/13 14:14:57;;;;;;;9.75;8.35;;;;;;;;;;5063429;28;20044;-76
2021/07/13 14:17:25;;;;;;;8.90;7.68;;;;;;;;;;5058551;28;20032;-79
2021/07/13 14:19:51;;;;;;;8.60;7.80;;;;;;;;;;5071869;28;20017;-77
2021/07/13 14:22:20;;;;;;;9.82;7.85;;;;;;;;;;5071467;28;20028;-78
2021/07/13 14:24:45;;;;;;;9.07;8.18;;;;;;;;;;5057946;28;20124;-78
2021/07/13 14:27:11;;;;;;;10.15;8.20;;;;;;;;;;5056823;28;20107;-76
2021/07/13 14:29:37;;;;;;;12.25;8.18;;;;;;;;;;5059883;28;20515;-77
2021/07/13 14:32:03;;;;;;;10.65;8.10;;;;;;;;;;5067726;28;20024;-76
2021/07/13 14:34:28;;;;;;;10.02;8.65;;;;;;;;;;5058499;28;20100;-79
2021/07/13 14:36:54;;;;;;;9.63;8.77;;;;;;;;;;5071818;28;20112;-77
2021/07/13 14:39:19;;;;;;;10.32;9.32;;;;;;;;;;5055785;28;20490;-76
2021/07/13 14:41:45;;;;;;;9.32;8.40;;;;;;;;;;5061814;28;20029;-76
2021/07/13 14:44:10;;;;;;;9.52;8.52;;;;;;;;;;5070323;28;20029;-77
2021/07/13 14:46:36;;;;;;;9.95;8.60;;;;;;;;;;5067083;28;20029;-73
2021/07/13 14:49:02;;;;;;;10.38;8.45;;;;;;;;;;5065338;28;20027;-73
2021/07/13 14:51:27;;;;;;;10.73;8.43;;;;;;;;;;5067796;28;20181;-76